Terminal Aerodrome Forecast
Issued by NWS

Home | Current Version | Previous Version | Text Only | Print | Product List | Glossary On
Versions: 1 2 3 4 5 6 7 8 9 10 11 12 13 14 15 16 17 18 19 20 21 22 23
329
FTUS43 KLSX 262321
TAFUIN
TAF
KUIN 262321Z 2700/2724 19009KT P6SM SCT120
     FM271200 15005KT 3SM BR BKN090
     FM271400 15005KT P6SM SCT090
     FM271900 16010KT P6SM FEW250=

USA.gov is the U.S. government's official web portal to all federal, state and local government web resources and services.